sensor_id;sensor_type;location;lat;lon;timestamp;pressure;altitude;pressure_sealevel;temperature;humidity
60719;BME280;46567;51.660;5.824;2023-06-14T00:02:19;129530.0;;;190.6;38.5
60719;BME280;46567;51.660;5.824;2023-06-14T00:07:22;129540.0;;;190.6;38.0
60719;BME280;46567;51.660;5.824;2023-06-14T00:12:19;129550.0;;;190.6;38.0
60719;BME280;46567;51.660;5.824;2023-06-14T00:18:34;129560.0;;;190.6;37.5
60719;BME280;46567;51.660;5.824;2023-06-14T00:22:19;129580.0;;;190.6;37.5
60719;BME280;46567;51.660;5.824;2023-06-14T00:27:19;129590.0;;;190.6;37.0
60719;BME280;46567;51.660;5.824;2023-06-14T00:32:19;129590.0;;;190.6;37.0
60719;BME280;46567;51.660;5.824;2023-06-14T00:37:19;129610.0;;;190.6;37.0
60719;BME280;46567;51.660;5.824;2023-06-14T00:42:23;129620.0;;;190.6;37.0
60719;BME280;46567;51.660;5.824;2023-06-14T00:47:19;129640.0;;;190.6;37.0
60719;BME280;46567;51.660;5.824;2023-06-14T00:52:20;129660.0;;;190.6;37.0
60719;BME280;46567;51.660;5.824;2023-06-14T00:57:19;129660.0;;;190.6;37.0
60719;BME280;46567;51.660;5.824;2023-06-14T01:02:19;129660.0;;;190.6;37.0
60719;BME280;46567;51.660;5.824;2023-06-14T01:07:36;129680.0;;;190.6;37.0
60719;BME280;46567;51.660;5.824;2023-06-14T01:12:36;129680.0;;;190.6;37.0
60719;BME280;46567;51.660;5.824;2023-06-14T01:17:19;129690.0;;;190.6;36.5
60719;BME280;46567;51.660;5.824;2023-06-14T01:22:20;129700.0;;;190.6;37.0
60719;BME280;46567;51.660;5.824;2023-06-14T01:27:20;129710.0;;;190.6;37.5
60719;BME280;46567;51.660;5.824;2023-06-14T01:32:19;129740.0;;;190.6;37.5
60719;BME280;46567;51.660;5.824;2023-06-14T01:37:21;129750.0;;;190.6;37.5
60719;BME280;46567;51.660;5.824;2023-06-14T01:42:20;129760.0;;;190.6;38.0
60719;BME280;46567;51.660;5.824;2023-06-14T01:47:20;129790.0;;;190.6;38.0
60719;BME280;46567;51.660;5.824;2023-06-14T01:52:19;129800.0;;;190.6;38.5
60719;BME280;46567;51.660;5.824;2023-06-14T01:57:19;129830.0;;;190.6;38.5
60719;BME280;46567;51.660;5.824;2023-06-14T02:02:19;129850.0;;;190.6;39.0
60719;BME280;46567;51.660;5.824;2023-06-14T02:07:19;129860.0;;;190.6;39.0
60719;BME280;46567;51.660;5.824;2023-06-14T02:12:19;129900.0;;;190.6;39.0
60719;BME280;46567;51.660;5.824;2023-06-14T02:17:19;129900.0;;;190.6;39.5
60719;BME280;46567;51.660;5.824;2023-06-14T02:22:19;129910.0;;;190.6;40.0
60719;BME280;46567;51.660;5.824;2023-06-14T02:27:19;129940.0;;;190.6;40.0
60719;BME280;46567;51.660;5.824;2023-06-14T02:32:19;129950.0;;;190.6;40.0
60719;BME280;46567;51.660;5.824;2023-06-14T02:37:20;129960.0;;;190.6;41.0
60719;BME280;46567;51.660;5.824;2023-06-14T02:42:19;129970.0;;;190.6;41.0
60719;BME280;46567;51.660;5.824;2023-06-14T02:47:19;129990.0;;;190.6;41.0
60719;BME280;46567;51.660;5.824;2023-06-14T02:52:19;130000.0;;;190.6;41.0
60719;BME280;46567;51.660;5.824;2023-06-14T02:57:20;130020.0;;;190.6;41.5
60719;BME280;46567;51.660;5.824;2023-06-14T03:02:19;130050.0;;;190.6;41.5
60719;BME280;46567;51.660;5.824;2023-06-14T03:07:19;130060.0;;;190.6;42.0
60719;BME280;46567;51.660;5.824;2023-06-14T03:12:19;130080.0;;;190.6;42.0
60719;BME280;46567;51.660;5.824;2023-06-14T03:17:19;130100.0;;;190.6;42.5
60719;BME280;46567;51.660;5.824;2023-06-14T03:22:19;130120.0;;;190.6;43.0
60719;BME280;46567;51.660;5.824;2023-06-14T03:27:20;130140.0;;;190.6;43.5
60719;BME280;46567;51.660;5.824;2023-06-14T03:32:19;130160.0;;;190.6;43.5
60719;BME280;46567;51.660;5.824;2023-06-14T03:37:19;130160.0;;;190.6;43.5
60719;BME280;46567;51.660;5.824;2023-06-14T03:42:19;130170.0;;;190.6;44.0
60719;BME280;46567;51.660;5.824;2023-06-14T03:47:19;130160.0;;;190.6;44.0
60719;BME280;46567;51.660;5.824;2023-06-14T03:52:19;130170.0;;;190.6;44.0
60719;BME280;46567;51.660;5.824;2023-06-14T03:57:20;130170.0;;;190.6;44.0
60719;BME280;46567;51.660;5.824;2023-06-14T04:02:19;130170.0;;;190.6;44.5
60719;BME280;46567;51.660;5.824;2023-06-14T04:07:20;130180.0;;;190.6;45.0
60719;BME280;46567;51.660;5.824;2023-06-14T04:12:19;130190.0;;;190.6;45.0
60719;BME280;46567;51.660;5.824;2023-06-14T04:17:20;130190.0;;;190.6;45.5
60719;BME280;46567;51.660;5.824;2023-06-14T04:22:19;130190.0;;;190.6;46.0
60719;BME280;46567;51.660;5.824;2023-06-14T04:27:19;130190.0;;;190.6;46.5
60719;BME280;46567;51.660;5.824;2023-06-14T04:32:19;130180.0;;;190.6;46.5
60719;BME280;46567;51.660;5.824;2023-06-14T04:37:20;130170.0;;;190.6;47.5
60719;BME280;46567;51.660;5.824;2023-06-14T04:42:19;130170.0;;;190.6;48.5
60719;BME280;46567;51.660;5.824;2023-06-14T04:47:20;130140.0;;;190.6;48.5
60719;BME280;46567;51.660;5.824;2023-06-14T04:52:19;130070.0;;;190.6;48.5
60719;BME280;46567;51.660;5.824;2023-06-14T04:57:19;129980.0;;;190.6;47.5
60719;BME280;46567;51.660;5.824;2023-06-14T05:02:20;129910.0;;;190.6;46.5
60719;BME280;46567;51.660;5.824;2023-06-14T05:07:19;129880.0;;;190.6;45.5
60719;BME280;46567;51.660;5.824;2023-06-14T05:12:19;129870.0;;;190.6;45.5
60719;BME280;46567;51.660;5.824;2023-06-14T05:17:20;129870.0;;;190.6;45.5
60719;BME280;46567;51.660;5.824;2023-06-14T05:22:20;129850.0;;;190.6;45.5
60719;BME280;46567;51.660;5.824;2023-06-14T05:27:20;129830.0;;;190.6;45.5
60719;BME280;46567;51.660;5.824;2023-06-14T05:32:20;129800.0;;;190.6;45.0
60719;BME280;46567;51.660;5.824;2023-06-14T05:37:20;129780.0;;;190.6;44.5
60719;BME280;46567;51.660;5.824;2023-06-14T05:42:20;129740.0;;;190.6;44.0
60719;BME280;46567;51.660;5.824;2023-06-14T05:47:20;129710.0;;;190.6;44.0
60719;BME280;46567;51.660;5.824;2023-06-14T05:52:20;129680.0;;;190.6;44.0
60719;BME280;46567;51.660;5.824;2023-06-14T05:57:19;129650.0;;;190.6;43.0
60719;BME280;46567;51.660;5.824;2023-06-14T06:02:20;129650.0;;;190.6;43.0
60719;BME280;46567;51.660;5.824;2023-06-14T06:07:19;129610.0;;;190.6;42.5
60719;BME280;46567;51.660;5.824;2023-06-14T06:12:19;129560.0;;;190.6;42.5
60719;BME280;46567;51.660;5.824;2023-06-14T06:17:20;129510.0;;;190.6;41.5
60719;BME280;46567;51.660;5.824;2023-06-14T06:22:20;129490.0;;;190.6;41.0
60719;BME280;46567;51.660;5.824;2023-06-14T06:27:19;129440.0;;;190.6;40.5
60719;BME280;46567;51.660;5.824;2023-06-14T06:32:20;129390.0;;;190.6;40.5
60719;BME280;46567;51.660;5.824;2023-06-14T06:37:20;129340.0;;;190.6;39.0
60719;BME280;46567;51.660;5.824;2023-06-14T06:42:20;129280.0;;;190.6;39.0
60719;BME280;46567;51.660;5.824;2023-06-14T06:47:20;129200.0;;;190.6;38.5
60719;BME280;46567;51.660;5.824;2023-06-14T06:52:20;129120.0;;;190.6;38.0
60719;BME280;46567;51.660;5.824;2023-06-14T06:57:20;129070.0;;;190.6;36.5
60719;BME280;46567;51.660;5.824;2023-06-14T07:02:20;129000.0;;;190.6;35.0
60719;BME280;46567;51.660;5.824;2023-06-14T07:07:20;128970.0;;;190.6;34.5
60719;BME280;46567;51.660;5.824;2023-06-14T07:12:20;128940.0;;;190.6;33.5
60719;BME280;46567;51.660;5.824;2023-06-14T07:17:20;128920.0;;;190.6;33.0
60719;BME280;46567;51.660;5.824;2023-06-14T07:22:20;128930.0;;;190.6;32.5
60719;BME280;46567;51.660;5.824;2023-06-14T07:27:20;128910.0;;;190.6;32.0
60719;BME280;46567;51.660;5.824;2023-06-14T07:32:20;128900.0;;;190.6;32.0
60719;BME280;46567;51.660;5.824;2023-06-14T07:37:20;128870.0;;;190.6;31.5
60719;BME280;46567;51.660;5.824;2023-06-14T07:42:20;128870.0;;;190.6;30.5
60719;BME280;46567;51.660;5.824;2023-06-14T07:47:20;128880.0;;;190.6;31.0
60719;BME280;46567;51.660;5.824;2023-06-14T07:52:20;128800.0;;;190.6;30.0
60719;BME280;46567;51.660;5.824;2023-06-14T07:57:20;128750.0;;;190.6;29.5
60719;BME280;46567;51.660;5.824;2023-06-14T08:02:20;128720.0;;;190.6;28.5
60719;BME280;46567;51.660;5.824;2023-06-14T08:07:20;128690.0;;;190.6;28.5
60719;BME280;46567;51.660;5.824;2023-06-14T08:12:20;128690.0;;;190.6;27.0
60719;BME280;46567;51.660;5.824;2023-06-14T08:17:20;128660.0;;;190.6;26.5
60719;BME280;46567;51.660;5.824;2023-06-14T08:22:20;128610.0;;;190.6;25.5
60719;BME280;46567;51.660;5.824;2023-06-14T08:27:20;128580.0;;;190.6;24.5
60719;BME280;46567;51.660;5.824;2023-06-14T08:32:20;128640.0;;;190.6;24.0
60719;BME280;46567;51.660;5.824;2023-06-14T08:37:20;128670.0;;;190.6;24.0
60719;BME280;46567;51.660;5.824;2023-06-14T08:42:21;128690.0;;;190.6;24.5
60719;BME280;46567;51.660;5.824;2023-06-14T08:47:20;128680.0;;;190.6;24.0
60719;BME280;46567;51.660;5.824;2023-06-14T08:52:20;128650.0;;;190.6;23.5
60719;BME280;46567;51.660;5.824;2023-06-14T08:57:20;128630.0;;;190.6;24.0
60719;BME280;46567;51.660;5.824;2023-06-14T09:02:20;128600.0;;;190.6;22.5
60719;BME280;46567;51.660;5.824;2023-06-14T09:07:20;128570.0;;;190.6;21.5
60719;BME280;46567;51.660;5.824;2023-06-14T09:12:20;128550.0;;;190.6;22.0
60719;BME280;46567;51.660;5.824;2023-06-14T09:17:20;128500.0;;;190.6;21.5
60719;BME280;46567;51.660;5.824;2023-06-14T09:22:20;128490.0;;;190.6;22.5
60719;BME280;46567;51.660;5.824;2023-06-14T09:27:20;128440.0;;;190.6;21.0
60719;BME280;46567;51.660;5.824;2023-06-14T09:32:20;128440.0;;;190.6;21.0
60719;BME280;46567;51.660;5.824;2023-06-14T09:37:28;128440.0;;;190.6;21.0
60719;BME280;46567;51.660;5.824;2023-06-14T09:42:20;128470.0;;;190.6;20.0
60719;BME280;46567;51.660;5.824;2023-06-14T09:47:20;128470.0;;;190.6;21.5
60719;BME280;46567;51.660;5.824;2023-06-14T09:52:22;128440.0;;;190.6;22.0
60719;BME280;46567;51.660;5.824;2023-06-14T09:57:21;128400.0;;;190.6;21.5
60719;BME280;46567;51.660;5.824;2023-06-14T10:02:29;128380.0;;;190.6;21.0
60719;BME280;46567;51.660;5.824;2023-06-14T10:07:20;128380.0;;;190.6;20.5
60719;BME280;46567;51.660;5.824;2023-06-14T10:12:20;128380.0;;;190.6;21.5
60719;BME280;46567;51.660;5.824;2023-06-14T10:17:27;128370.0;;;190.6;21.5
60719;BME280;46567;51.660;5.824;2023-06-14T10:22:38;128360.0;;;190.6;20.5
60719;BME280;46567;51.660;5.824;2023-06-14T10:27:20;128360.0;;;190.6;21.5
60719;BME280;46567;51.660;5.824;2023-06-14T10:32:20;128340.0;;;190.6;21.0
60719;BME280;46567;51.660;5.824;2023-06-14T10:37:20;128330.0;;;190.6;21.5
60719;BME280;46567;51.660;5.824;2023-06-14T10:42:20;128330.0;;;190.6;21.5
60719;BME280;46567;51.660;5.824;2023-06-14T10:47:23;128360.0;;;190.6;22.0
60719;BME280;46567;51.660;5.824;2023-06-14T10:52:23;128350.0;;;190.6;22.5
60719;BME280;46567;51.660;5.824;2023-06-14T10:57:20;128320.0;;;190.6;22.5
60719;BME280;46567;51.660;5.824;2023-06-14T11:02:56;128340.0;;;190.6;20.5
60719;BME280;46567;51.660;5.824;2023-06-14T11:07:55;128360.0;;;190.6;21.5
60719;BME280;46567;51.660;5.824;2023-06-14T11:12:20;128310.0;;;190.6;20.5
60719;BME280;46567;51.660;5.824;2023-06-14T11:17:20;128340.0;;;190.6;20.5
60719;BME280;46567;51.660;5.824;2023-06-14T11:22:20;128320.0;;;190.6;20.5
60719;BME280;46567;51.660;5.824;2023-06-14T11:27:20;128350.0;;;190.6;20.5
60719;BME280;46567;51.660;5.824;2023-06-14T11:32:20;128330.0;;;190.6;20.0
60719;BME280;46567;51.660;5.824;2023-06-14T11:37:20;128350.0;;;190.6;20.0
60719;BME280;46567;51.660;5.824;2023-06-14T11:42:20;128320.0;;;190.6;20.0
60719;BME280;46567;51.660;5.824;2023-06-14T11:47:20;128290.0;;;190.6;20.0
60719;BME280;46567;51.660;5.824;2023-06-14T11:52:20;128240.0;;;190.6;20.0
60719;BME280;46567;51.660;5.824;2023-06-14T11:57:20;128210.0;;;190.6;20.5
60719;BME280;46567;51.660;5.824;2023-06-14T12:02:21;128230.0;;;190.6;19.5
60719;BME280;46567;51.660;5.824;2023-06-14T12:07:21;128200.0;;;190.6;19.5
60719;BME280;46567;51.660;5.824;2023-06-14T12:12:20;128220.0;;;190.6;18.5
60719;BME280;46567;51.660;5.824;2023-06-14T12:17:20;128240.0;;;190.6;19.5
60719;BME280;46567;51.660;5.824;2023-06-14T12:22:20;128200.0;;;190.6;20.0
60719;BME280;46567;51.660;5.824;2023-06-14T12:27:21;128210.0;;;190.6;19.0
60719;BME280;46567;51.660;5.824;2023-06-14T12:32:20;128220.0;;;190.6;18.0
60719;BME280;46567;51.660;5.824;2023-06-14T12:37:20;128260.0;;;190.6;19.0
60719;BME280;46567;51.660;5.824;2023-06-14T12:42:20;128210.0;;;190.6;19.5
60719;BME280;46567;51.660;5.824;2023-06-14T12:47:20;128140.0;;;190.6;19.0
60719;BME280;46567;51.660;5.824;2023-06-14T12:52:20;128120.0;;;190.6;17.0
60719;BME280;46567;51.660;5.824;2023-06-14T12:57:20;128160.0;;;190.6;19.0
60719;BME280;46567;51.660;5.824;2023-06-14T13:02:20;128120.0;;;190.6;19.0
60719;BME280;46567;51.660;5.824;2023-06-14T13:07:20;128080.0;;;190.6;19.0
60719;BME280;46567;51.660;5.824;2023-06-14T13:12:20;128050.0;;;190.6;18.0
60719;BME280;46567;51.660;5.824;2023-06-14T13:17:20;128060.0;;;190.6;18.5
60719;BME280;46567;51.660;5.824;2023-06-14T13:22:20;128090.0;;;190.6;17.5
60719;BME280;46567;51.660;5.824;2023-06-14T13:27:20;128130.0;;;190.6;18.0
60719;BME280;46567;51.660;5.824;2023-06-14T13:32:20;128120.0;;;190.6;18.0
60719;BME280;46567;51.660;5.824;2023-06-14T13:37:20;128120.0;;;190.6;17.5
60719;BME280;46567;51.660;5.824;2023-06-14T13:42:20;128110.0;;;190.6;18.5
60719;BME280;46567;51.660;5.824;2023-06-14T13:47:20;128050.0;;;190.6;18.5
60719;BME280;46567;51.660;5.824;2023-06-14T13:52:20;127990.0;;;190.6;18.0
60719;BME280;46567;51.660;5.824;2023-06-14T13:57:20;127990.0;;;190.6;16.5
60719;BME280;46567;51.660;5.824;2023-06-14T14:02:20;127970.0;;;190.6;17.5
60719;BME280;46567;51.660;5.824;2023-06-14T14:07:20;127960.0;;;190.6;16.5
60719;BME280;46567;51.660;5.824;2023-06-14T14:12:20;127970.0;;;190.6;16.0
60719;BME280;46567;51.660;5.824;2023-06-14T14:17:20;127960.0;;;190.6;17.5
60719;BME280;46567;51.660;5.824;2023-06-14T14:22:20;127930.0;;;190.6;18.0
60719;BME280;46567;51.660;5.824;2023-06-14T14:27:20;127910.0;;;190.6;17.5
60719;BME280;46567;51.660;5.824;2023-06-14T14:32:20;127890.0;;;190.6;18.5
60719;BME280;46567;51.660;5.824;2023-06-14T14:37:20;127890.0;;;190.6;17.5
60719;BME280;46567;51.660;5.824;2023-06-14T14:42:20;127940.0;;;190.6;17.5
60719;BME280;46567;51.660;5.824;2023-06-14T14:47:20;127930.0;;;190.6;17.5
60719;BME280;46567;51.660;5.824;2023-06-14T14:52:20;127930.0;;;190.6;18.0
60719;BME280;46567;51.660;5.824;2023-06-14T14:57:20;127930.0;;;190.6;17.5
60719;BME280;46567;51.660;5.824;2023-06-14T15:02:20;127900.0;;;190.6;17.5
60719;BME280;46567;51.660;5.824;2023-06-14T15:07:20;127900.0;;;190.6;17.5
60719;BME280;46567;51.660;5.824;2023-06-14T15:12:20;127850.0;;;190.6;18.0
60719;BME280;46567;51.660;5.824;2023-06-14T15:17:21;127810.0;;;190.6;17.0
60719;BME280;46567;51.660;5.824;2023-06-14T15:22:20;127810.0;;;190.6;17.5
60719;BME280;46567;51.660;5.824;2023-06-14T15:27:20;127830.0;;;190.6;17.5
60719;BME280;46567;51.660;5.824;2023-06-14T15:32:20;127830.0;;;190.6;17.5
60719;BME280;46567;51.660;5.824;2023-06-14T15:37:20;127820.0;;;190.6;17.0
60719;BME280;46567;51.660;5.824;2023-06-14T15:42:20;127820.0;;;190.6;18.0
60719;BME280;46567;51.660;5.824;2023-06-14T15:47:20;127840.0;;;190.6;18.5
60719;BME280;46567;51.660;5.824;2023-06-14T15:52:20;127820.0;;;190.6;18.0
60719;BME280;46567;51.660;5.824;2023-06-14T15:57:20;127870.0;;;190.6;17.0
60719;BME280;46567;51.660;5.824;2023-06-14T16:02:20;127930.0;;;190.6;18.0
60719;BME280;46567;51.660;5.824;2023-06-14T16:07:20;127960.0;;;190.6;18.0
60719;BME280;46567;51.660;5.824;2023-06-14T16:12:20;127890.0;;;190.6;17.5
60719;BME280;46567;51.660;5.824;2023-06-14T16:17:20;127820.0;;;190.6;16.5
60719;BME280;46567;51.660;5.824;2023-06-14T16:22:20;127790.0;;;190.6;16.5
60719;BME280;46567;51.660;5.824;2023-06-14T16:27:20;127810.0;;;190.6;17.0
60719;BME280;46567;51.660;5.824;2023-06-14T16:32:20;127830.0;;;190.6;17.0
60719;BME280;46567;51.660;5.824;2023-06-14T16:37:20;127830.0;;;190.6;16.5
60719;BME280;46567;51.660;5.824;2023-06-14T16:42:20;127900.0;;;190.6;18.0
60719;BME280;46567;51.660;5.824;2023-06-14T16:47:20;127880.0;;;190.6;17.0
60719;BME280;46567;51.660;5.824;2023-06-14T16:52:20;127890.0;;;190.6;17.0
60719;BME280;46567;51.660;5.824;2023-06-14T16:57:20;127960.0;;;190.6;17.0
60719;BME280;46567;51.660;5.824;2023-06-14T17:02:20;128010.0;;;190.6;17.5
60719;BME280;46567;51.660;5.824;2023-06-14T17:07:20;128060.0;;;190.6;18.0
60719;BME280;46567;51.660;5.824;2023-06-14T17:12:20;128060.0;;;190.6;18.5
60719;BME280;46567;51.660;5.824;2023-06-14T17:17:20;128070.0;;;190.6;18.0
60719;BME280;46567;51.660;5.824;2023-06-14T17:22:20;128040.0;;;190.6;17.0
60719;BME280;46567;51.660;5.824;2023-06-14T17:27:20;128010.0;;;190.6;18.0
60719;BME280;46567;51.660;5.824;2023-06-14T17:32:20;127970.0;;;190.6;17.0
60719;BME280;46567;51.660;5.824;2023-06-14T17:37:20;128010.0;;;190.6;18.0
60719;BME280;46567;51.660;5.824;2023-06-14T17:42:20;128000.0;;;190.6;17.0
60719;BME280;46567;51.660;5.824;2023-06-14T17:47:20;127980.0;;;190.6;17.5
60719;BME280;46567;51.660;5.824;2023-06-14T17:52:21;127970.0;;;190.6;18.0
60719;BME280;46567;51.660;5.824;2023-06-14T17:57:20;128020.0;;;190.6;17.5
60719;BME280;46567;51.660;5.824;2023-06-14T18:02:20;128100.0;;;190.6;18.5
60719;BME280;46567;51.660;5.824;2023-06-14T18:07:20;128190.0;;;190.6;19.0
60719;BME280;46567;51.660;5.824;2023-06-14T18:12:20;128240.0;;;190.6;19.0
60719;BME280;46567;51.660;5.824;2023-06-14T18:17:20;128320.0;;;190.6;20.0
60719;BME280;46567;51.660;5.824;2023-06-14T18:22:20;128330.0;;;190.6;20.5
60719;BME280;46567;51.660;5.824;2023-06-14T18:27:20;128320.0;;;190.6;21.0
60719;BME280;46567;51.660;5.824;2023-06-14T18:32:20;128360.0;;;190.6;21.5
60719;BME280;46567;51.660;5.824;2023-06-14T18:37:20;128390.0;;;190.6;22.0
60719;BME280;46567;51.660;5.824;2023-06-14T18:42:20;128430.0;;;190.6;21.5
60719;BME280;46567;51.660;5.824;2023-06-14T18:47:20;128480.0;;;190.6;22.0
60719;BME280;46567;51.660;5.824;2023-06-14T18:52:20;128540.0;;;190.6;23.0
60719;BME280;46567;51.660;5.824;2023-06-14T18:57:20;128590.0;;;190.6;23.5
60719;BME280;46567;51.660;5.824;2023-06-14T19:02:20;128650.0;;;190.6;24.5
60719;BME280;46567;51.660;5.824;2023-06-14T19:07:20;128710.0;;;190.6;24.5
60719;BME280;46567;51.660;5.824;2023-06-14T19:12:20;128780.0;;;190.6;25.0
60719;BME280;46567;51.660;5.824;2023-06-14T19:17:20;128830.0;;;190.6;25.5
60719;BME280;46567;51.660;5.824;2023-06-14T19:22:20;128880.0;;;190.6;25.5
60719;BME280;46567;51.660;5.824;2023-06-14T19:27:20;128920.0;;;190.6;26.0
60719;BME280;46567;51.660;5.824;2023-06-14T19:32:20;128950.0;;;190.6;26.5
60719;BME280;46567;51.660;5.824;2023-06-14T19:37:20;129000.0;;;190.6;27.5
60719;BME280;46567;51.660;5.824;2023-06-14T19:42:20;129040.0;;;190.6;27.5
60719;BME280;46567;51.660;5.824;2023-06-14T19:47:20;129080.0;;;190.6;28.0
60719;BME280;46567;51.660;5.824;2023-06-14T19:52:20;129140.0;;;190.6;28.5
60719;BME280;46567;51.660;5.824;2023-06-14T19:57:20;129170.0;;;190.6;28.5
60719;BME280;46567;51.660;5.824;2023-06-14T20:02:20;129200.0;;;190.6;29.0
60719;BME280;46567;51.660;5.824;2023-06-14T20:07:20;129220.0;;;190.6;29.0
60719;BME280;46567;51.660;5.824;2023-06-14T20:12:20;129250.0;;;190.6;29.0
60719;BME280;46567;51.660;5.824;2023-06-14T20:17:20;129280.0;;;190.6;29.5
60719;BME280;46567;51.660;5.824;2023-06-14T20:22:20;129320.0;;;190.6;30.0
60719;BME280;46567;51.660;5.824;2023-06-14T20:27:20;129350.0;;;190.6;31.0
60719;BME280;46567;51.660;5.824;2023-06-14T20:32:20;129380.0;;;190.6;31.5
60719;BME280;46567;51.660;5.824;2023-06-14T20:37:20;129400.0;;;190.6;31.5
60719;BME280;46567;51.660;5.824;2023-06-14T20:42:20;129450.0;;;190.6;32.5
60719;BME280;46567;51.660;5.824;2023-06-14T20:47:20;129480.0;;;190.6;33.0
60719;BME280;46567;51.660;5.824;2023-06-14T20:52:20;129520.0;;;190.6;33.5
60719;BME280;46567;51.660;5.824;2023-06-14T20:57:20;129560.0;;;190.6;34.5
60719;BME280;46567;51.660;5.824;2023-06-14T21:02:20;129600.0;;;190.6;35.5
60719;BME280;46567;51.660;5.824;2023-06-14T21:07:20;129640.0;;;190.6;35.5
60719;BME280;46567;51.660;5.824;2023-06-14T21:12:20;129640.0;;;190.6;35.5
60719;BME280;46567;51.660;5.824;2023-06-14T21:17:20;129650.0;;;190.6;35.5
60719;BME280;46567;51.660;5.824;2023-06-14T21:22:20;129650.0;;;190.6;35.5
60719;BME280;46567;51.660;5.824;2023-06-14T21:27:20;129670.0;;;190.6;36.0
60719;BME280;46567;51.660;5.824;2023-06-14T21:32:20;129690.0;;;190.6;36.5
60719;BME280;46567;51.660;5.824;2023-06-14T21:37:20;129710.0;;;190.6;37.0
60719;BME280;46567;51.660;5.824;2023-06-14T21:42:20;129720.0;;;190.6;37.0
60719;BME280;46567;51.660;5.824;2023-06-14T21:47:20;129730.0;;;190.6;37.0
60719;BME280;46567;51.660;5.824;2023-06-14T21:52:20;129740.0;;;190.6;37.0
60719;BME280;46567;51.660;5.824;2023-06-14T21:57:20;129770.0;;;190.6;37.5
60719;BME280;46567;51.660;5.824;2023-06-14T22:02:20;129790.0;;;190.6;38.0
60719;BME280;46567;51.660;5.824;2023-06-14T22:07:20;129820.0;;;190.6;38.5
60719;BME280;46567;51.660;5.824;2023-06-14T22:12:20;129850.0;;;190.6;38.5
60719;BME280;46567;51.660;5.824;2023-06-14T22:17:20;129880.0;;;190.6;39.0
60719;BME280;46567;51.660;5.824;2023-06-14T22:22:20;129890.0;;;190.6;39.5
60719;BME280;46567;51.660;5.824;2023-06-14T22:27:21;129920.0;;;190.6;39.5
60719;BME280;46567;51.660;5.824;2023-06-14T22:32:20;129940.0;;;190.6;40.0
60719;BME280;46567;51.660;5.824;2023-06-14T22:37:20;129960.0;;;190.6;40.5
60719;BME280;46567;51.660;5.824;2023-06-14T22:42:20;129980.0;;;190.6;40.5
60719;BME280;46567;51.660;5.824;2023-06-14T22:47:20;130000.0;;;190.6;41.5
60719;BME280;46567;51.660;5.824;2023-06-14T22:52:20;130030.0;;;190.6;41.5
60719;BME280;46567;51.660;5.824;2023-06-14T22:57:20;130060.0;;;190.6;42.0
60719;BME280;46567;51.660;5.824;2023-06-14T23:02:20;130090.0;;;190.6;42.5
60719;BME280;46567;51.660;5.824;2023-06-14T23:07:20;130130.0;;;190.6;43.5
60719;BME280;46567;51.660;5.824;2023-06-14T23:12:20;130150.0;;;190.6;44.0
60719;BME280;46567;51.660;5.824;2023-06-14T23:17:20;130170.0;;;190.6;44.5
60719;BME280;46567;51.660;5.824;2023-06-14T23:22:20;130190.0;;;190.6;44.5
60719;BME280;46567;51.660;5.824;2023-06-14T23:27:20;130210.0;;;190.6;45.0
60719;BME280;46567;51.660;5.824;2023-06-14T23:32:20;130220.0;;;190.6;45.0
60719;BME280;46567;51.660;5.824;2023-06-14T23:37:20;130240.0;;;190.6;45.0
60719;BME280;46567;51.660;5.824;2023-06-14T23:42:20;130250.0;;;190.6;45.5
60719;BME280;46567;51.660;5.824;2023-06-14T23:47:20;130260.0;;;190.6;45.5
60719;BME280;46567;51.660;5.824;2023-06-14T23:52:20;130280.0;;;190.6;46.0
60719;BME280;46567;51.660;5.824;2023-06-14T23:57:20;130300.0;;;190.6;46.5
